sensor_id;sensor_type;location;lat;lon;timestamp;P1;P2;P0
45112;PMS5003;30873;53.908;27.576;2023-01-19T00:01:25;22;20;12.5
45112;PMS5003;30873;53.908;27.576;2023-01-19T00:06:49;21;19;11.7
45112;PMS5003;30873;53.908;27.576;2023-01-19T00:11:19;24.1;21.6;13.1
45112;PMS5003;30873;53.908;27.576;2023-01-19T00:16:37;25.4;22.6;13.7
45112;PMS5003;30873;53.908;27.576;2023-01-19T00:21:03;23.6;21.2;13
45112;PMS5003;30873;53.908;27.576;2023-01-19T00:26:35;22;19.6;11.8
45112;PMS5003;30873;53.908;27.576;2023-01-19T00:31:21;20.6;17.5;11.2
45112;PMS5003;30873;53.908;27.576;2023-01-19T00:36:49;18.2;15.8;9.6
45112;PMS5003;30873;53.908;27.576;2023-01-19T00:41:51;17.2;15.8;9.8
45112;PMS5003;30873;53.908;27.576;2023-01-19T00:46:49;18.6;16.7;10.2
45112;PMS5003;30873;53.908;27.576;2023-01-19T00:51:49;20;18;10.9
45112;PMS5003;30873;53.908;27.576;2023-01-19T00:56:25;20.2;17.6;10.7
45112;PMS5003;30873;53.908;27.576;2023-01-19T01:01:51;18.7;16.4;10.5
45112;PMS5003;30873;53.908;27.576;2023-01-19T01:06:04;17.3;15.2;8.8
45112;PMS5003;30873;53.908;27.576;2023-01-19T01:11:49;17.6;15;9.5
45112;PMS5003;30873;53.908;27.576;2023-01-19T01:16:21;18.7;16.2;10.8
45112;PMS5003;30873;53.908;27.576;2023-01-19T01:21:47;20.8;17.9;10.8
45112;PMS5003;30873;53.908;27.576;2023-01-19T01:26:21;19.5;17.3;10.5
45112;PMS5003;30873;53.908;27.576;2023-01-19T01:31:49;21.2;17.9;11.1
45112;PMS5003;30873;53.908;27.576;2023-01-19T01:36:23;20.7;18;11.2
45112;PMS5003;30873;53.908;27.576;2023-01-19T01:41:39;19.5;17.2;10.2
45112;PMS5003;30873;53.908;27.576;2023-01-19T01:46:26;20;17.4;10.8
45112;PMS5003;30873;53.908;27.576;2023-01-19T01:51:27;18.5;16.5;11.5
45112;PMS5003;30873;53.908;27.576;2023-01-19T01:56:26;19.2;17.4;10.9
45112;PMS5003;30873;53.908;27.576;2023-01-19T02:01:23;19.9;17.2;10.9
45112;PMS5003;30873;53.908;27.576;2023-01-19T02:06:39;18.5;16.8;10.3
45112;PMS5003;30873;53.908;27.576;2023-01-19T02:11:49;16;15;9.8
45112;PMS5003;30873;53.908;27.576;2023-01-19T02:16:23;18.2;16;9.8
45112;PMS5003;30873;53.908;27.576;2023-01-19T02:21:06;18.1;15.4;9.9
45112;PMS5003;30873;53.908;27.576;2023-01-19T02:26:49;16.6;15;9.6
45112;PMS5003;30873;53.908;27.576;2023-01-19T02:31:11;18.6;15.7;10.3
45112;PMS5003;30873;53.908;27.576;2023-01-19T02:36:16;19.1;16.9;10.4
45112;PMS5003;30873;53.908;27.576;2023-01-19T02:41:04;19;16.9;10.2
45112;PMS5003;30873;53.908;27.576;2023-01-19T02:46:13;17.5;16.1;10.4
45112;PMS5003;30873;53.908;27.576;2023-01-19T02:51:27;15.8;13.6;9.2
45112;PMS5003;30873;53.908;27.576;2023-01-19T02:56:06;14.8;12.6;8.1
45112;PMS5003;30873;53.908;27.576;2023-01-19T03:01:05;14.8;13;7.9
45112;PMS5003;30873;53.908;27.576;2023-01-19T03:06:54;12.7;11;7.7
45112;PMS5003;30873;53.908;27.576;2023-01-19T03:11:13;13.1;12.1;7.8
45112;PMS5003;30873;53.908;27.576;2023-01-19T03:16:55;12.7;11.3;7.4
45112;PMS5003;30873;53.908;27.576;2023-01-19T03:21:51;10;9.2;6.2
45112;PMS5003;30873;53.908;27.576;2023-01-19T03:26:38;11.2;9.5;6.1
45112;PMS5003;30873;53.908;27.576;2023-01-19T03:31:04;12.5;10.5;6.4
45112;PMS5003;30873;53.908;27.576;2023-01-19T03:36:52;12.9;10.5;6.9
45112;PMS5003;30873;53.908;27.576;2023-01-19T03:41:39;11.9;10.5;6.8
45112;PMS5003;30873;53.908;27.576;2023-01-19T03:46:25;11.3;9.5;6.3
45112;PMS5003;30873;53.908;27.576;2023-01-19T03:51:49;12.4;10.7;7.3
45112;PMS5003;30873;53.908;27.576;2023-01-19T03:56:37;12.8;11.9;7.9
45112;PMS5003;30873;53.908;27.576;2023-01-19T04:01:35;13.9;12.1;8
45112;PMS5003;30873;53.908;27.576;2023-01-19T04:06:13;13.9;12.7;8.4
45112;PMS5003;30873;53.908;27.576;2023-01-19T04:11:51;13.6;12.7;8.3
45112;PMS5003;30873;53.908;27.576;2023-01-19T04:16:13;14.1;12.9;8.4
45112;PMS5003;30873;53.908;27.576;2023-01-19T04:21:39;15;12.7;7.9
45112;PMS5003;30873;53.908;27.576;2023-01-19T04:26:14;14.2;12.7;8.4
45112;PMS5003;30873;53.908;27.576;2023-01-19T04:31:37;14;12.6;8.2
45112;PMS5003;30873;53.908;27.576;2023-01-19T04:36:04;14.9;13;8.8
45112;PMS5003;30873;53.908;27.576;2023-01-19T04:41:47;15.3;14.3;9.4
45112;PMS5003;30873;53.908;27.576;2023-01-19T04:46:35;18.1;16.3;10.6
45112;PMS5003;30873;53.908;27.576;2023-01-19T04:51:31;21.3;18.7;12.3
45112;PMS5003;30873;53.908;27.576;2023-01-19T04:56:49;16.7;14.8;9.8
45112;PMS5003;30873;53.908;27.576;2023-01-19T05:01:25;19;16.9;11.6
45112;PMS5003;30873;53.908;27.576;2023-01-19T05:06:39;16.5;14.4;9.6
45112;PMS5003;30873;53.908;27.576;2023-01-19T05:11:03;16.8;14.8;10.2
45112;PMS5003;30873;53.908;27.576;2023-01-19T05:16:39;16.8;15.1;10.4
45112;PMS5003;30873;53.908;27.576;2023-01-19T05:21:04;14.5;13;8.7
45112;PMS5003;30873;53.908;27.576;2023-01-19T05:26:05;15;13.5;8.6
45112;PMS5003;30873;53.908;27.576;2023-01-19T05:31:25;15.6;13.9;9.1
45112;PMS5003;30873;53.908;27.576;2023-01-19T05:36:37;16;14.4;10.1
45112;PMS5003;30873;53.908;27.576;2023-01-19T05:41:34;17.1;14.5;9.3
45112;PMS5003;30873;53.908;27.576;2023-01-19T05:46:47;13.7;13;9.2
45112;PMS5003;30873;53.908;27.576;2023-01-19T05:51:51;15.9;14.2;10.2
45112;PMS5003;30873;53.908;27.576;2023-01-19T05:56:04;16.6;14.6;9.6
45112;PMS5003;30873;53.908;27.576;2023-01-19T06:01:49;16;14.6;9.5
45112;PMS5003;30873;53.908;27.576;2023-01-19T06:06:11;17.4;15.5;9.7
45112;PMS5003;30873;53.908;27.576;2023-01-19T06:11:37;16.8;14.9;9.5
45112;PMS5003;30873;53.908;27.576;2023-01-19T06:16:11;18.7;16.2;10.2
45112;PMS5003;30873;53.908;27.576;2023-01-19T06:21:47;19.2;16.5;10.5
45112;PMS5003;30873;53.908;27.576;2023-01-19T06:26:23;19.3;17.5;12.3
45112;PMS5003;30873;53.908;27.576;2023-01-19T06:31:47;18.9;16.5;10.7
45112;PMS5003;30873;53.908;27.576;2023-01-19T06:36:35;20.7;18.7;12.2
45112;PMS5003;30873;53.908;27.576;2023-01-19T06:41:47;20.2;17.1;11.5
45112;PMS5003;30873;53.908;27.576;2023-01-19T06:46:23;20.7;18.2;11.8
45112;PMS5003;30873;53.908;27.576;2023-01-19T06:51:03;22.3;19.5;12.5
45112;PMS5003;30873;53.908;27.576;2023-01-19T06:56:25;20.8;18.8;12.4
45112;PMS5003;30873;53.908;27.576;2023-01-19T07:01:11;21;18.1;11.8
45112;PMS5003;30873;53.908;27.576;2023-01-19T07:06:37;21;18.8;12.7
45112;PMS5003;30873;53.908;27.576;2023-01-19T07:11:47;18.9;16.8;11.8
45112;PMS5003;30873;53.908;27.576;2023-01-19T07:16:23;18.8;16.8;11.1
45112;PMS5003;30873;53.908;27.576;2023-01-19T07:21:21;18.3;16.1;10.1
45112;PMS5003;30873;53.908;27.576;2023-01-19T07:26:49;17.8;16.8;11.4
45112;PMS5003;30873;53.908;27.576;2023-01-19T07:31:23;21.9;19.6;13.3
45112;PMS5003;30873;53.908;27.576;2023-01-19T07:36:33;21.8;20.1;13.2
45112;PMS5003;30873;53.908;27.576;2023-01-19T07:41:15;19.7;17.8;11.7
45112;PMS5003;30873;53.908;27.576;2023-01-19T07:46:04;23.3;20.7;14.1
45112;PMS5003;30873;53.908;27.576;2023-01-19T07:51:37;21.3;18.9;12.4
45112;PMS5003;30873;53.908;27.576;2023-01-19T07:56:11;20.4;18.1;12.1
45112;PMS5003;30873;53.908;27.576;2023-01-19T08:01:25;21.3;18.8;12.7
45112;PMS5003;30873;53.908;27.576;2023-01-19T08:06:47;20;17.2;11.3
45112;PMS5003;30873;53.908;27.576;2023-01-19T08:11:23;22.3;19.2;12.5
45112;PMS5003;30873;53.908;27.576;2023-01-19T08:16:49;21.7;19.4;12.2
45112;PMS5003;30873;53.908;27.576;2023-01-19T08:21:47;22.5;20.1;13.6
45112;PMS5003;30873;53.908;27.576;2023-01-19T08:26:35;24.5;21.8;14.2
45112;PMS5003;30873;53.908;27.576;2023-01-19T08:31:03;24.9;22.5;15.5
45112;PMS5003;30873;53.908;27.576;2023-01-19T08:36:47;24.5;22.3;14
45112;PMS5003;30873;53.908;27.576;2023-01-19T08:41:12;20.1;18.6;12.3
45112;PMS5003;30873;53.908;27.576;2023-01-19T08:46:25;23;20.1;13.1
45112;PMS5003;30873;53.908;27.576;2023-01-19T08:51:47;23.5;21;14.3
45112;PMS5003;30873;53.908;27.576;2023-01-19T08:56:24;25.8;22.9;15.5
45112;PMS5003;30873;53.908;27.576;2023-01-19T09:01:34;28.6;25.7;17.4
45112;PMS5003;30873;53.908;27.576;2023-01-19T09:06:25;29;25.6;17.9
45112;PMS5003;30873;53.908;27.576;2023-01-19T09:11:47;26.7;24.3;16.1
45112;PMS5003;30873;53.908;27.576;2023-01-19T09:16:23;33.9;29.4;20.2
45112;PMS5003;30873;53.908;27.576;2023-01-19T09:21:50;36.7;30.6;21.5
45112;PMS5003;30873;53.908;27.576;2023-01-19T09:26:23;35.9;30.8;20.9
45112;PMS5003;30873;53.908;27.576;2023-01-19T09:31:49;35.3;31;20.9
45112;PMS5003;30873;53.908;27.576;2023-01-19T09:36:35;36.1;30.8;20.6
45112;PMS5003;30873;53.908;27.576;2023-01-19T09:41:08;42.1;35;23.2
45112;PMS5003;30873;53.908;27.576;2023-01-19T09:46:49;31;27.2;17.8
45112;PMS5003;30873;53.908;27.576;2023-01-19T09:51:37;34.6;29.8;19.1
45112;PMS5003;30873;53.908;27.576;2023-01-19T09:56:07;36.2;30.9;20.3
45112;PMS5003;30873;53.908;27.576;2023-01-19T10:01:29;34.8;30.3;20.2
45112;PMS5003;30873;53.908;27.576;2023-01-19T10:06:50;36.1;30.4;20.5
45112;PMS5003;30873;53.908;27.576;2023-01-19T10:11:17;39.8;33.1;20.7
45112;PMS5003;30873;53.908;27.576;2023-01-19T10:16:39;31.1;27.5;17.5
45112;PMS5003;30873;53.908;27.576;2023-01-19T10:21:05;31.1;27.1;17.1
45112;PMS5003;30873;53.908;27.576;2023-01-19T10:26:38;28;24.7;16.2
45112;PMS5003;30873;53.908;27.576;2023-01-19T10:31:38;27;23.3;14.8
45112;PMS5003;30873;53.908;27.576;2023-01-19T10:36:52;34.8;28.8;18.7
45112;PMS5003;30873;53.908;27.576;2023-01-19T10:41:39;60.2;47.4;31.4
45112;PMS5003;30873;53.908;27.576;2023-01-19T10:46:41;62.7;49.3;33.1
45112;PMS5003;30873;53.908;27.576;2023-01-19T10:51:51;51.1;41.3;26.7
45112;PMS5003;30873;53.908;27.576;2023-01-19T10:56:26;37.1;31;19.9
45112;PMS5003;30873;53.908;27.576;2023-01-19T11:01:11;35.7;31.2;20.5
45112;PMS5003;30873;53.908;27.576;2023-01-19T11:06:17;39.2;32.2;20.6
45112;PMS5003;30873;53.908;27.576;2023-01-19T11:11:41;38.1;32.2;21.1
45112;PMS5003;30873;53.908;27.576;2023-01-19T11:16:39;36.2;31.6;20.6
45112;PMS5003;30873;53.908;27.576;2023-01-19T11:21:35;32.1;28.4;18.4
45112;PMS5003;30873;53.908;27.576;2023-01-19T11:26:24;27.6;23.8;14.6
45112;PMS5003;30873;53.908;27.576;2023-01-19T11:31:37;24.4;22;14.3
45112;PMS5003;30873;53.908;27.576;2023-01-19T11:36:35;24.1;21.5;14.2
45112;PMS5003;30873;53.908;27.576;2023-01-19T11:41:56;26.8;23.8;16
45112;PMS5003;30873;53.908;27.576;2023-01-19T11:46:52;26.4;23.3;14.9
45112;PMS5003;30873;53.908;27.576;2023-01-19T11:51:18;25.8;22.6;14.6
45112;PMS5003;30873;53.908;27.576;2023-01-19T11:56:54;27.3;24.4;16.2
45112;PMS5003;30873;53.908;27.576;2023-01-19T12:01:05;30;25.5;17.4
45112;PMS5003;30873;53.908;27.576;2023-01-19T12:06:30;33.4;28.6;18.9
45112;PMS5003;30873;53.908;27.576;2023-01-19T12:11:04;32.5;28.2;18.7
45112;PMS5003;30873;53.908;27.576;2023-01-19T12:16:52;31.5;27.5;17.9
45112;PMS5003;30873;53.908;27.576;2023-01-19T12:21:26;37.8;32.5;21.3
45112;PMS5003;30873;53.908;27.576;2023-01-19T12:26:52;34.9;30.1;20.4
45112;PMS5003;30873;53.908;27.576;2023-01-19T12:31:26;41.2;34.7;23.1
45112;PMS5003;30873;53.908;27.576;2023-01-19T12:36:53;37.7;32;21.5
45112;PMS5003;30873;53.908;27.576;2023-01-19T12:41:14;35.4;31.6;20.7
45112;PMS5003;30873;53.908;27.576;2023-01-19T12:46:11;32.1;28.4;18.6
45112;PMS5003;30873;53.908;27.576;2023-01-19T12:51:41;34.8;30.4;19.7
45112;PMS5003;30873;53.908;27.576;2023-01-19T12:56:15;36.3;31.4;20
45112;PMS5003;30873;53.908;27.576;2023-01-19T13:01:41;35.4;30.5;19.9
45112;PMS5003;30873;53.908;27.576;2023-01-19T13:07:09;35.1;30.3;19.8
45112;PMS5003;30873;53.908;27.576;2023-01-19T13:11:16;35.4;30.3;19.4
45112;PMS5003;30873;53.908;27.576;2023-01-19T13:17:31;33.9;29.6;18.9
45112;PMS5003;30873;53.908;27.576;2023-01-19T13:21:51;29.9;26.5;17.5
45112;PMS5003;30873;53.908;27.576;2023-01-19T13:26:24;27.4;24.1;16.2
45112;PMS5003;30873;53.908;27.576;2023-01-19T13:31:51;25.5;22.2;14.3
45112;PMS5003;30873;53.908;27.576;2023-01-19T13:36:28;25.6;23.3;14.2
45112;PMS5003;30873;53.908;27.576;2023-01-19T13:41:03;23.1;20.9;13
45112;PMS5003;30873;53.908;27.576;2023-01-19T13:46:03;25.5;21.8;13.4
45112;PMS5003;30873;53.908;27.576;2023-01-19T13:51:04;25.2;23;14.3
45112;PMS5003;30873;53.908;27.576;2023-01-19T13:56:37;23.2;20.3;13.2
45112;PMS5003;30873;53.908;27.576;2023-01-19T14:01:52;25.5;22.5;14.8
45112;PMS5003;30873;53.908;27.576;2023-01-19T14:06:33;23.7;20.9;13.5
45112;PMS5003;30873;53.908;27.576;2023-01-19T14:11:03;27.3;24.3;14.6
45112;PMS5003;30873;53.908;27.576;2023-01-19T14:16:49;26.1;22;14.2
45112;PMS5003;30873;53.908;27.576;2023-01-19T14:21:17;32.2;26.7;16.2
45112;PMS5003;30873;53.908;27.576;2023-01-19T14:26:03;26.8;23.8;15.2
45112;PMS5003;30873;53.908;27.576;2023-01-19T14:31:24;28.6;24.2;15.4
45112;PMS5003;30873;53.908;27.576;2023-01-19T14:36:08;33.7;29.5;19.5
45112;PMS5003;30873;53.908;27.576;2023-01-19T14:41:03;30.1;25.4;16.1
45112;PMS5003;30873;53.908;27.576;2023-01-19T14:46:27;23;20.3;13.1
45112;PMS5003;30873;53.908;27.576;2023-01-19T14:51:37;22.5;20.2;12.8
45112;PMS5003;30873;53.908;27.576;2023-01-19T14:56:47;23.2;20.1;12.6
45112;PMS5003;30873;53.908;27.576;2023-01-19T15:01:24;23.3;21.5;14.1
45112;PMS5003;30873;53.908;27.576;2023-01-19T15:06:49;22.9;20.2;13.3
45112;PMS5003;30873;53.908;27.576;2023-01-19T15:11:49;26.2;24.1;14.8
45112;PMS5003;30873;53.908;27.576;2023-01-19T15:16:33;20;18.8;13.3
45112;PMS5003;30873;53.908;27.576;2023-01-19T15:21:03;25.9;22.6;14.4
45112;PMS5003;30873;53.908;27.576;2023-01-19T15:26:49;22.3;20.1;13.3
45112;PMS5003;30873;53.908;27.576;2023-01-19T15:31:17;22.6;19.9;13.6
45112;PMS5003;30873;53.908;27.576;2023-01-19T15:36:27;19.8;18.1;11.9
45112;PMS5003;30873;53.908;27.576;2023-01-19T15:41:52;21;19;12.8
45112;PMS5003;30873;53.908;27.576;2023-01-19T15:46:35;22.6;20.3;13.9
45112;PMS5003;30873;53.908;27.576;2023-01-19T15:51:35;22.5;18.9;11.9
45112;PMS5003;30873;53.908;27.576;2023-01-19T15:56:14;20.7;18.8;12
45112;PMS5003;30873;53.908;27.576;2023-01-19T16:01:49;23.3;19.4;12
45112;PMS5003;30873;53.908;27.576;2023-01-19T16:06:03;19.3;17.2;11.5
45112;PMS5003;30873;53.908;27.576;2023-01-19T16:11:35;18.2;15.7;10.3
45112;PMS5003;30873;53.908;27.576;2023-01-19T16:16:04;19.2;17.2;11.2
45112;PMS5003;30873;53.908;27.576;2023-01-19T16:21:16;15.3;13.8;9.1
45112;PMS5003;30873;53.908;27.576;2023-01-19T16:26:23;15.3;13.6;9
45112;PMS5003;30873;53.908;27.576;2023-01-19T16:31:52;14.9;13.5;9.8
45112;PMS5003;30873;53.908;27.576;2023-01-19T16:36:38;14.4;13.3;8.4
45112;PMS5003;30873;53.908;27.576;2023-01-19T16:41:35;17.4;16;11.4
45112;PMS5003;30873;53.908;27.576;2023-01-19T16:46:49;13.2;12.6;9.3
45112;PMS5003;30873;53.908;27.576;2023-01-19T16:51:13;15.7;13.7;9.2
45112;PMS5003;30873;53.908;27.576;2023-01-19T16:56:25;14.1;12.7;9
45112;PMS5003;30873;53.908;27.576;2023-01-19T17:01:26;13.2;11.6;8.5
45112;PMS5003;30873;53.908;27.576;2023-01-19T17:06:38;13.3;12.4;8.9
45112;PMS5003;30873;53.908;27.576;2023-01-19T17:11:27;15.2;13.3;9.1
45112;PMS5003;30873;53.908;27.576;2023-01-19T17:16:26;12.8;12;8.3
45112;PMS5003;30873;53.908;27.576;2023-01-19T17:21:15;15.7;13.5;9.8
45112;PMS5003;30873;53.908;27.576;2023-01-19T17:26:37;12.4;11.6;7.8
45112;PMS5003;30873;53.908;27.576;2023-01-19T17:31:37;13.1;11.9;7.4
45112;PMS5003;30873;53.908;27.576;2023-01-19T17:36:51;11.6;10.3;6.8
45112;PMS5003;30873;53.908;27.576;2023-01-19T17:41:51;9.9;9.1;6.3
45112;PMS5003;30873;53.908;27.576;2023-01-19T17:46:16;16.1;13.8;9.3
45112;PMS5003;30873;53.908;27.576;2023-01-19T17:51:51;11.4;10;6.9
45112;PMS5003;30873;53.908;27.576;2023-01-19T17:56:14;10.4;9.5;6.5
45112;PMS5003;30873;53.908;27.576;2023-01-19T18:01:28;10.4;8.8;6.1
45112;PMS5003;30873;53.908;27.576;2023-01-19T18:06:14;15.6;14.2;10.8
45112;PMS5003;30873;53.908;27.576;2023-01-19T18:11:51;25.9;22.2;16
45112;PMS5003;30873;53.908;27.576;2023-01-19T18:16:15;11.5;10.4;7.7
45112;PMS5003;30873;53.908;27.576;2023-01-19T18:21:51;10.3;9.5;6.4
45112;PMS5003;30873;53.908;27.576;2023-01-19T18:26:33;7.9;7;4.8
45112;PMS5003;30873;53.908;27.576;2023-01-19T18:31:51;8.8;7.6;5.6
45112;PMS5003;30873;53.908;27.576;2023-01-19T18:36:49;7.7;6.7;4.9
45112;PMS5003;30873;53.908;27.576;2023-01-19T18:41:25;7.8;6.8;4.6
45112;PMS5003;30873;53.908;27.576;2023-01-19T18:46:51;7.8;6.6;4.5
45112;PMS5003;30873;53.908;27.576;2023-01-19T18:51:26;7.8;7.1;4.8
45112;PMS5003;30873;53.908;27.576;2023-01-19T18:56:37;8.5;7.8;5.3
45112;PMS5003;30873;53.908;27.576;2023-01-19T19:01:15;8.4;7.3;5.2
45112;PMS5003;30873;53.908;27.576;2023-01-19T19:06:51;7.7;6.9;4.2
45112;PMS5003;30873;53.908;27.576;2023-01-19T19:11:37;6.9;6.5;4.7
45112;PMS5003;30873;53.908;27.576;2023-01-19T19:16:52;9.7;7.7;5.5
45112;PMS5003;30873;53.908;27.576;2023-01-19T19:21:23;8.1;7.1;4.3
45112;PMS5003;30873;53.908;27.576;2023-01-19T19:26:49;8.1;7.3;4.9
45112;PMS5003;30873;53.908;27.576;2023-01-19T19:31:16;8.3;8;5
45112;PMS5003;30873;53.908;27.576;2023-01-19T19:36:14;9.1;7.7;5.5
45112;PMS5003;30873;53.908;27.576;2023-01-19T19:41:26;9.7;8.5;5.5
45112;PMS5003;30873;53.908;27.576;2023-01-19T19:46:05;9.8;9.1;6.1
45112;PMS5003;30873;53.908;27.576;2023-01-19T19:51:37;12.1;10;6.7
45112;PMS5003;30873;53.908;27.576;2023-01-19T19:56:49;9.9;9.1;5.9
45112;PMS5003;30873;53.908;27.576;2023-01-19T20:01:28;9.7;8.7;5.9
45112;PMS5003;30873;53.908;27.576;2023-01-19T20:06:16;10.4;9.3;6
45112;PMS5003;30873;53.908;27.576;2023-01-19T20:11:51;9.9;8.6;5.5
45112;PMS5003;30873;53.908;27.576;2023-01-19T20:16:24;9.4;9;6.2
45112;PMS5003;30873;53.908;27.576;2023-01-19T20:21:08;9.2;8.6;5.9
45112;PMS5003;30873;53.908;27.576;2023-01-19T20:26:37;9.5;8.9;5.8
45112;PMS5003;30873;53.908;27.576;2023-01-19T20:31:15;9.5;8.6;5.8
45112;PMS5003;30873;53.908;27.576;2023-01-19T20:36:27;10.4;9.1;6.2
45112;PMS5003;30873;53.908;27.576;2023-01-19T20:41:16;9.7;9;5.6
45112;PMS5003;30873;53.908;27.576;2023-01-19T20:46:25;10.5;9.4;5.9
45112;PMS5003;30873;53.908;27.576;2023-01-19T20:51:50;9.9;9.3;5.8
45112;PMS5003;30873;53.908;27.576;2023-01-19T20:56:14;11;8.9;5.9
45112;PMS5003;30873;53.908;27.576;2023-01-19T21:01:51;9.4;8.3;5.8
45112;PMS5003;30873;53.908;27.576;2023-01-19T21:06:47;9.9;9.1;6
45112;PMS5003;30873;53.908;27.576;2023-01-19T21:11:27;9.9;9.6;6.4
45112;PMS5003;30873;53.908;27.576;2023-01-19T21:16:26;9.9;9.5;5.9
45112;PMS5003;30873;53.908;27.576;2023-01-19T21:21:51;10.6;9.6;6.5
45112;PMS5003;30873;53.908;27.576;2023-01-19T21:26:26;10.9;9.7;6.3
45112;PMS5003;30873;53.908;27.576;2023-01-19T21:31:04;10.9;9.5;6.4
45112;PMS5003;30873;53.908;27.576;2023-01-19T21:36:49;12.7;11.1;6.9
45112;PMS5003;30873;53.908;27.576;2023-01-19T21:41:37;12.7;11.4;7.3
45112;PMS5003;30873;53.908;27.576;2023-01-19T21:46:38;13.7;11.9;7.5
45112;PMS5003;30873;53.908;27.576;2023-01-19T21:51:50;13.6;11.5;7.3
45112;PMS5003;30873;53.908;27.576;2023-01-19T21:56:49;14.2;12.3;7.7
45112;PMS5003;30873;53.908;27.576;2023-01-19T22:01:13;15.6;13.3;8.1
45112;PMS5003;30873;53.908;27.576;2023-01-19T22:06:33;14;12.1;7.3
45112;PMS5003;30873;53.908;27.576;2023-01-19T22:11:14;12.9;11.6;7.4
45112;PMS5003;30873;53.908;27.576;2023-01-19T22:16:35;13.1;12;7.3
45112;PMS5003;30873;53.908;27.576;2023-01-19T22:21:15;13.9;12.6;7.1
45112;PMS5003;30873;53.908;27.576;2023-01-19T22:26:37;11.8;10.3;6.3
45112;PMS5003;30873;53.908;27.576;2023-01-19T22:31:24;11.2;9.7;6.2
45112;PMS5003;30873;53.908;27.576;2023-01-19T22:36:42;11.3;9.8;6
45112;PMS5003;30873;53.908;27.576;2023-01-19T22:41:47;12.3;10.7;6.5
45112;PMS5003;30873;53.908;27.576;2023-01-19T22:46:15;11.6;10;6.2
45112;PMS5003;30873;53.908;27.576;2023-01-19T22:51:49;13.1;11.1;6.6
45112;PMS5003;30873;53.908;27.576;2023-01-19T22:56:34;12.1;10.3;6.3
45112;PMS5003;30873;53.908;27.576;2023-01-19T23:01:34;12.2;11;6.6
45112;PMS5003;30873;53.908;27.576;2023-01-19T23:06:14;12.3;10.6;6.6
45112;PMS5003;30873;53.908;27.576;2023-01-19T23:11:46;11.9;10.5;6.2
45112;PMS5003;30873;53.908;27.576;2023-01-19T23:16:12;10.6;9.5;5.9
45112;PMS5003;30873;53.908;27.576;2023-01-19T23:21:49;11.2;10.1;6
45112;PMS5003;30873;53.908;27.576;2023-01-19T23:26:36;10.1;9.3;5.7
45112;PMS5003;30873;53.908;27.576;2023-01-19T23:31:24;13.1;10.5;6.4
45112;PMS5003;30873;53.908;27.576;2023-01-19T23:36:47;11.7;10;6.2
45112;PMS5003;30873;53.908;27.576;2023-01-19T23:41:24;10.8;9.4;5.8
45112;PMS5003;30873;53.908;27.576;2023-01-19T23:46:34;11.7;9.9;6.3
45112;PMS5003;30873;53.908;27.576;2023-01-19T23:51:12;11.5;9.5;6.1
45112;PMS5003;30873;53.908;27.576;2023-01-19T23:56:24;11.7;10;6
